Terminal Aerodrome Forecast
Issued by NWS Twin Cities, MN

Home | Current Version | Previous Version | Text Only | Print | Product List | Glossary Off
Versions: 1 2 3 4 5 6 7 8 9 10 11 12 13 14 15 16 17

675
FTUS43 KMPX 281120
TAFSTC
TAF
KSTC 281120Z 2812/2912 02004KT 4SM BR OVC005
     FM281500 02004KT 6SM BR SCT007 OVC015
     FM281800 05003KT 4SM -SHRA BR OVC025
      TEMPO 2820/2824 3SM -TSRA BKN020CB OVC040
     FM290100 30005KT P6SM SCT007 OVC025=

USA.gov is the U.S. government's official web portal to all federal, state and local government web resources and services.